首页
METAR-TAF:

METAR-TAF

机场 :

盧布爾雅那約熱·普奇尼克機場

卢布尔雅那, 斯洛文尼亚

纬度: 46-13N, 经度: 014-29E, 海拔: 385米

当前天气观测

该预报发布于36分钟前的05:30 UTC
风速3节,风向西,在西南西北之间变化
温度 11°C
湿度 94%
气压 1013 hPa
能见度10公里或以上
少量云层高于3000英尺
多云层高于12000英尺

METAR: LJLJ 230530Z 26003KT 220V320 9999 FEW030 BKN120 11/10 Q1013 NOSIG

时间: 08:06 (06:06 UTC)

预报

该预报发布于1小时和6分钟前的05:00 UTC
预报有效从23日的 06点(UTC)到 24日的 06点(UTC)
风速3节,风向西转西北
能见度10公里或以上
少量云层高于2700英尺
散云层高于3500英尺
多云层高于16000英尺
几率 30% :
短暂存在
从 23日的 06点(UTC)到 23日的 10点(UTC)
多云层高于3000英尺
阴天层高于4500英尺
小雨
成为
从 23日的 09点(UTC)到 23日的 12点(UTC)
风速5节,风向东转东南
多云层高于3000英尺
阴天层高于4500英尺
短暂存在
从 23日的 10点(UTC)到 23日的 15点(UTC)
能見度: 7000
多云层高于3000英尺, 塔状积云.
阴天层高于4500英尺
阵雨
几率 40% :
短暂存在
从 23日的 11点(UTC)到 23日的 15点(UTC)
能見度: 5000
多云层高于2500英尺, 积雨云.
阴天层高于4500英尺
雷暴, 雨
成为
从 23日的 15点(UTC)到 23日的 18点(UTC)
风速3节,风向西转西北
能見度: 5000
散云层高于1500英尺
阴天层高于3500英尺
成为
从 23日的 22点(UTC)到 23日的 24点(UTC)
能见度10公里或以上
散云层高于3000英尺
多云层高于5000英尺
几率 30% :
短暂存在
从 24日的 00点(UTC)到 24日的 03点(UTC)
多云层高于3000英尺
小雨

TAF: LJLJ 230500Z 2306/2406 30003KT 9999 FEW027 SCT035 BKN160 PROB30 TEMPO 2306/2310 -RA BKN030 OVC045 BECMG 2309/2312 12005KT BKN030 OVC045 TEMPO 2310/2315 7000 SHRA BKN030TCU OVC045 PROB40 TEMPO 2311/2315 5000 TSRA BKN025CB OVC045 BECMG 2315/2318 30003KT 5000 RA SCT015 OVC035 BECMG 2322/2324 9999 NSW SCT030 BKN050 PROB30 TEMPO 2400/2403 -RA BKN030

超过4000个机场的气象观测和天气预报(METAR&TAF报告)。

可查询的气象台以黄色和红色小点在地图上表示。

将鼠标移到小点上方,可查看气象台名称。

然后点击查看天气观测和预报。

如需切换地图:点击带黑十字的绿色按钮放大地图;点击带横线的绿色按钮缩小地图;或者点击绿色箭头查看邻近地区的地图。


METAR-TAF: